»·PEaware :: N1713C KSNA-KSNA

N1713C :: KSNA-KSNA

FLIGHT INFORMATION

Flight Status: Arrived
Operator: Privately registered:
United States
More flights under this callsign
Pilot: Marwan R. (32563)
Aircraft: CESSNA 182 SKYLANE
(C182)
More flights by this aircraft type
Origin: KSNA John Wayne-Orange Co
United States
Destination: KSNA John Wayne-Orange Co
United States
More flights between these airports :: More routes between these airports
Route: SLI
File this flight plan on PilotEdge
Remarks:
Altitude:
(Current/Filed)
3,000ft
Speed:
(Current/Filed)
145kts
Departed: 24-Nov-20 11:20 AM
Arrived: 24-Nov-20 11:41 AM
Distance/Time
Traveled:
0nm/0:21
Distance/Time
To Go:
Arrived

Flight Plot

Page will automatically refresh every two minutes.


Map Options




Map Legend


Flown Route
Filed Route
Departure Airport
Arrival Airport
Navaid (VOR, NDB)
Fix

Horizontal Profiles

Position Reports

Time Latitude Longitude Heading Altitude Ground
Speed
24-Nov-20 10:44 33.676174 -117.870974 219 52ft 0kts
24-Nov-20 10:45 33.676174 -117.870974 219 52ft 0kts
24-Nov-20 10:49 33.676174 -117.870974 219 52ft 0kts
24-Nov-20 10:49 33.676173 -117.870974 219 52ft 0kts
24-Nov-20 10:51 33.676173 -117.870974 219 52ft 0kts
24-Nov-20 10:54 33.676173 -117.870974 219 52ft 0kts
24-Nov-20 10:56 33.676173 -117.870974 219 52ft 0kts
24-Nov-20 10:56 33.676173 -117.870974 219 52ft 0kts
24-Nov-20 10:58 33.676173 -117.870974 219 52ft 0kts
24-Nov-20 10:58 33.676173 -117.870974 219 52ft 0kts
24-Nov-20 10:59 33.676173 -117.870974 219 52ft 0kts
24-Nov-20 11:00 33.676173 -117.870974 219 52ft 0kts
24-Nov-20 11:03 33.676174 -117.870974 219 52ft 0kts
24-Nov-20 11:04 33.676174 -117.870974 219 52ft 0kts
24-Nov-20 11:05 33.676174 -117.870974 219 52ft 0kts
24-Nov-20 11:06 33.676174 -117.870974 219 52ft 0kts
24-Nov-20 11:07 33.676174 -117.870974 219 52ft 0kts
24-Nov-20 11:08 33.676174 -117.870974 219 52ft 0kts
24-Nov-20 11:09 33.676173 -117.870974 219 52ft 0kts
24-Nov-20 11:10 33.676173 -117.870974 219 52ft 0kts
24-Nov-20 11:11 33.676173 -117.870974 219 52ft 0kts
24-Nov-20 11:12 33.676173 -117.870974 219 52ft 0kts
24-Nov-20 11:13 33.676173 -117.870974 219 52ft 0kts
24-Nov-20 11:14 33.675948 -117.870846 123 52ft 4kts
24-Nov-20 11:15 33.677139 -117.869412 27 50ft 11kts
24-Nov-20 11:16 33.680351 -117.867555 27 45ft 12kts
24-Nov-20 11:17 33.681266 -117.866512 114 43ft 0kts
24-Nov-20 11:18 33.681266 -117.866512 114 43ft 0kts
24-Nov-20 11:19 33.677511 -117.867755 208 105ft 68kts
24-Nov-20 11:20 33.659362 -117.888176 232 1474ft 94kts
24-Nov-20 11:21 33.637845 -117.920354 232 2002ft 141kts
24-Nov-20 11:22 33.611701 -117.959535 233 2291ft 142kts
24-Nov-20 11:23 33.633222 -117.978799 11 2997ft 135kts
24-Nov-20 11:24 33.671533 -117.969137 12 2999ft 140kts
24-Nov-20 11:25 33.708709 -117.954461 30 3000ft 140kts
24-Nov-20 11:26 33.741944 -117.928772 32 2998ft 137kts
24-Nov-20 11:27 33.773766 -117.904144 32 2998ft 132kts
24-Nov-20 11:28 33.805362 -117.879969 32 2997ft 135kts
24-Nov-20 11:29 33.837536 -117.855713 32 2995ft 136kts
24-Nov-20 11:30 33.870241 -117.831408 32 2993ft 137kts
24-Nov-20 11:31 33.902859 -117.805601 59 2987ft 137kts
24-Nov-20 11:32 33.894345 -117.760756 143 2993ft 143kts
24-Nov-20 11:33 33.853858 -117.760018 192 2997ft 147kts
24-Nov-20 11:34 33.816252 -117.779750 207 2731ft 133kts
24-Nov-20 11:35 33.786266 -117.798789 207 2098ft 107kts
24-Nov-20 11:36 33.759986 -117.815960 208 1737ft 102kts
24-Nov-20 11:37 33.735111 -117.832489 208 1222ft 99kts
24-Nov-20 11:38 33.709909 -117.848045 203 700ft 98kts
24-Nov-20 11:39 33.687298 -117.861563 207 219ft 81kts
24-Nov-20 11:40 33.675847 -117.869437 300 52ft 7kts
24-Nov-20 11:41 33.676154 -117.870089 298 52ft 5kts
24-Nov-20 11:42 33.675419 -117.871271 219 52ft 0kts

Navigation Log

Ident Type
Flight plan parsing failed, navigation log unavailable